createdAt,value
2019-02-23T00:00:12.617Z,90.74
2019-02-23T00:02:41.341Z,90.75
2019-02-23T00:05:10.731Z,90.90
2019-02-23T00:07:40.051Z,90.54
2019-02-23T00:10:09.424Z,90.66
2019-02-23T00:12:38.789Z,90.66
2019-02-23T00:17:42.960Z,90.39
2019-02-23T00:20:12.259Z,90.43
2019-02-23T00:22:41.646Z,90.33
2019-02-23T00:25:10.956Z,90.58
2019-02-23T00:27:40.248Z,90.49
2019-02-23T00:30:28.687Z,90.68
2019-02-23T00:32:58.218Z,90.99
2019-02-23T00:35:27.512Z,91.27
2019-02-23T00:37:56.905Z,91.30
2019-02-23T00:40:26.204Z,91.30
2019-02-23T00:42:55.730Z,91.21
2019-02-23T00:45:44.069Z,91.39
2019-02-23T00:48:13.373Z,91.46
2019-02-23T00:50:42.938Z,91.70
2019-02-23T00:53:12.205Z,91.97
2019-02-23T00:55:41.718Z,92.18
2019-02-23T00:58:10.993Z,92.17
2019-02-23T01:00:40.331Z,92.23
2019-02-23T01:03:09.620Z,92.41
2019-02-23T01:05:39.224Z,92.33
2019-02-23T01:08:08.518Z,92.50
2019-02-23T01:10:38.173Z,92.32
2019-02-23T01:13:07.508Z,92.58
2019-02-23T01:15:37.004Z,92.57
2019-02-23T01:18:06.384Z,92.50
2019-02-23T01:20:35.982Z,92.59
2019-02-23T01:23:24.487Z,92.34
2019-02-23T01:25:53.777Z,92.35
2019-02-23T01:33:46.567Z,92.68
2019-02-23T01:36:15.893Z,92.54
2019-02-23T01:38:45.213Z,92.75
2019-02-23T01:41:14.671Z,92.81
2019-02-23T01:43:44.038Z,92.83
2019-02-23T01:46:13.345Z,93.03
2019-02-23T01:48:42.784Z,93.21
2019-02-23T01:54:01.965Z,92.76
2019-02-23T01:56:31.331Z,92.72
2019-02-23T01:59:00.673Z,92.80
2019-02-23T02:01:30.147Z,92.71
2019-02-23T02:03:59.498Z,92.73
2019-02-23T02:06:29.024Z,92.75
2019-02-23T02:08:58.345Z,93.14
2019-02-23T02:11:46.665Z,93.21
2019-02-23T02:14:16.176Z,93.32
2019-02-23T02:16:45.459Z,93.29
2019-02-23T02:19:14.768Z,93.30
2019-02-23T02:21:44.141Z,93.10
2019-02-23T02:24:13.435Z,93.14
2019-02-23T02:26:42.818Z,92.93
2019-02-23T02:29:12.135Z,92.98
2019-02-23T02:31:41.513Z,93.20
2019-02-23T02:34:16.144Z,93.29
2019-02-23T02:36:45.648Z,93.18
2019-02-23T02:39:16.223Z,93.58
2019-02-23T02:41:45.507Z,93.78
2019-02-23T02:44:14.970Z,93.86
2019-02-23T02:46:44.268Z,94.14
2019-02-23T02:49:13.712Z,94.36
2019-02-23T02:51:43.014Z,94.62
2019-02-23T02:54:12.380Z,94.75
2019-02-23T02:56:41.710Z,94.95
2019-02-23T02:59:11.236Z,94.85
2019-02-23T03:01:40.520Z,94.99
2019-02-23T03:04:10.104Z,95.18
2019-02-23T03:06:39.393Z,95.08
2019-02-23T03:09:11.476Z,95.20
2019-02-23T03:11:40.873Z,95.87
2019-02-23T03:14:10.144Z,96.28
2019-02-23T03:16:39.549Z,96.23
2019-02-23T03:19:08.832Z,96.38
2019-02-23T03:21:38.211Z,96.61
2019-02-23T03:24:07.504Z,96.54
2019-02-23T03:26:36.862Z,96.76
2019-02-23T03:29:06.144Z,96.81
2019-02-23T03:31:35.485Z,96.68
2019-02-23T03:34:04.788Z,96.61
2019-02-23T03:36:34.137Z,96.74
2019-02-23T03:41:53.340Z,96.74
2019-02-23T03:44:22.662Z,96.66
2019-02-23T03:46:52.953Z,96.72
2019-02-23T03:49:22.240Z,96.83
2019-02-23T03:51:51.559Z,96.52
2019-02-23T03:54:20.879Z,96.80
2019-02-23T03:56:50.201Z,96.82
2019-02-23T03:59:19.481Z,96.97
2019-02-23T04:01:48.785Z,96.95
2019-02-23T04:04:18.092Z,97.36
2019-02-23T04:06:47.376Z,97.13
2019-02-23T04:09:16.668Z,97.29
2019-02-23T04:11:46.059Z,97.06
2019-02-23T04:14:15.341Z,97.00
2019-02-23T04:16:44.878Z,97.07
2019-02-23T04:19:14.158Z,97.55
2019-02-23T04:21:43.513Z,97.48
2019-02-23T04:24:31.838Z,97.62
2019-02-23T04:27:01.147Z,97.15
2019-02-23T04:29:30.503Z,97.80
2019-02-23T04:31:59.794Z,97.44
2019-02-23T04:34:29.368Z,97.54
2019-02-23T04:36:58.654Z,97.72
2019-02-23T04:39:28.333Z,97.55
2019-02-23T04:41:57.638Z,97.83
2019-02-23T04:44:27.182Z,97.67
2019-02-23T04:46:56.457Z,98.01
2019-02-23T04:49:26.224Z,98.38
2019-02-23T04:51:55.464Z,98.58
2019-02-23T04:54:24.839Z,98.79
2019-02-23T04:56:54.137Z,98.93
2019-02-23T04:59:23.511Z,98.85
2019-02-23T05:02:12.101Z,98.89
2019-02-23T05:04:41.403Z,98.54
2019-02-23T05:07:10.912Z,98.50
2019-02-23T05:09:40.211Z,98.26
2019-02-23T05:14:45.518Z,98.35
2019-02-23T05:17:14.818Z,98.42
2019-02-23T05:19:44.356Z,98.15
2019-02-23T05:24:48.223Z,98.17
2019-02-23T05:27:17.767Z,98.17
2019-02-23T05:29:47.122Z,98.45
2019-02-23T05:32:35.383Z,98.48
2019-02-23T05:35:05.331Z,99.27
2019-02-23T05:37:34.672Z,99.09
2019-02-23T05:40:04.366Z,98.80
2019-02-23T05:42:33.698Z,99.31
2019-02-23T05:45:03.286Z,98.80
2019-02-23T05:47:32.608Z,98.83
2019-02-23T05:50:02.102Z,99.47
2019-02-23T05:52:31.401Z,98.92
2019-02-23T05:55:01.032Z,99.16
2019-02-23T05:57:30.313Z,98.67
2019-02-23T05:59:59.890Z,98.19
2019-02-23T06:02:29.212Z,98.20
2019-02-23T06:04:58.532Z,97.95
2019-02-23T06:07:27.817Z,97.87
2019-02-23T06:09:57.215Z,97.57
2019-02-23T06:12:26.506Z,97.63
2019-02-23T06:15:14.860Z,97.49
2019-02-23T06:17:44.205Z,97.67
2019-02-23T06:20:13.513Z,97.39
2019-02-23T06:22:42.845Z,97.25
2019-02-23T06:25:12.159Z,97.20
2019-02-23T06:27:41.444Z,97.23
2019-02-23T06:30:11.834Z,97.17
2019-02-23T06:32:41.124Z,97.30
2019-02-23T06:35:22.167Z,97.67
2019-02-23T06:37:53.398Z,97.54
2019-02-23T06:40:22.735Z,97.32
2019-02-23T06:42:52.018Z,97.27
2019-02-23T06:45:21.423Z,97.71
2019-02-23T06:47:50.692Z,97.56
2019-02-23T06:50:19.990Z,97.24
2019-02-23T06:52:49.281Z,97.24
2019-02-23T06:55:18.555Z,97.38
2019-02-23T06:57:48.035Z,97.51
2019-02-23T07:00:17.353Z,97.32
2019-02-23T07:02:46.922Z,97.28
2019-02-23T07:05:16.234Z,97.09
2019-02-23T07:07:45.647Z,96.94
2019-02-23T07:10:14.932Z,96.87
2019-02-23T07:12:44.349Z,96.79
2019-02-23T07:15:13.806Z,96.51
2019-02-23T07:17:43.307Z,96.41
2019-02-23T07:23:00.974Z,96.88
2019-02-23T07:25:30.522Z,96.94
2019-02-23T07:27:59.825Z,96.98
2019-02-23T07:30:29.296Z,97.06
2019-02-23T07:32:58.589Z,96.88
2019-02-23T07:35:28.230Z,97.04
2019-02-23T07:37:57.534Z,96.96
2019-02-23T07:40:26.905Z,96.89
2019-02-23T07:43:15.470Z,96.75
2019-02-23T07:45:45.010Z,96.55
2019-02-23T07:48:14.496Z,96.48
2019-02-23T07:50:43.911Z,96.35
2019-02-23T07:53:13.622Z,96.53
2019-02-23T07:55:42.932Z,96.48
2019-02-23T07:58:12.829Z,96.30
2019-02-23T08:01:01.041Z,96.10
2019-02-23T08:03:30.347Z,95.98
2019-02-23T08:05:59.848Z,95.95
2019-02-23T08:08:29.148Z,95.87
2019-02-23T08:11:17.500Z,95.74
2019-02-23T08:13:47.225Z,95.46
2019-02-23T08:16:16.677Z,95.40
2019-02-23T08:18:46.170Z,95.44
2019-02-23T08:21:15.536Z,95.06
2019-02-23T08:23:44.853Z,94.71
2019-02-23T08:26:14.164Z,94.42
2019-02-23T08:28:43.490Z,94.52
2019-02-23T08:31:13.495Z,94.34
2019-02-23T08:33:43.871Z,94.15
2019-02-23T08:36:13.190Z,93.75
2019-02-23T08:38:53.791Z,93.58
2019-02-23T08:41:23.083Z,93.18
2019-02-23T08:43:52.533Z,93.39
2019-02-23T08:46:41.198Z,93.35
2019-02-23T08:49:10.501Z,93.39
2019-02-23T08:51:40.305Z,93.31
2019-02-23T08:54:09.595Z,93.33
2019-02-23T08:56:39.181Z,93.40
2019-02-23T08:59:08.524Z,93.25
2019-02-23T09:01:38.195Z,93.08
2019-02-23T09:04:07.487Z,92.83
2019-02-23T09:06:37.069Z,92.65
2019-02-23T09:09:08.175Z,92.73
2019-02-23T09:11:38.288Z,92.59
2019-02-23T09:14:07.645Z,91.88
2019-02-23T09:16:55.927Z,91.70
2019-02-23T09:22:13.722Z,91.17
2019-02-23T09:24:43.022Z,90.98
2019-02-23T09:27:12.424Z,91.18
2019-02-23T09:29:41.711Z,90.71
2019-02-23T09:32:11.688Z,90.57
2019-02-23T09:34:41.019Z,90.46
2019-02-23T09:37:10.337Z,90.49
2019-02-23T09:39:39.680Z,90.33
2019-02-23T09:42:08.997Z,90.45
2019-02-23T09:44:38.313Z,90.58
2019-02-23T09:47:07.616Z,90.49
2019-02-23T09:49:55.939Z,90.70
2019-02-23T09:52:25.436Z,90.65
2019-02-23T09:54:54.793Z,90.56
2019-02-23T09:57:24.099Z,90.42
2019-02-23T09:59:53.515Z,90.34
2019-02-23T10:02:22.856Z,90.40
2019-02-23T10:04:52.564Z,90.06
2019-02-23T10:07:21.866Z,89.74
2019-02-23T10:09:51.277Z,89.76
2019-02-23T10:12:20.609Z,89.82
2019-02-23T10:14:50.372Z,89.24
2019-02-23T10:17:19.735Z,88.46
2019-02-23T10:19:49.039Z,88.31
2019-02-23T10:22:18.380Z,88.19
2019-02-23T10:24:47.715Z,88.45
2019-02-23T10:27:17.053Z,88.66
2019-02-23T10:29:46.589Z,87.87
2019-02-23T10:32:15.938Z,87.74
2019-02-23T10:34:45.628Z,87.56
2019-02-23T10:37:34.011Z,86.67
2019-02-23T10:40:03.306Z,87.29
2019-02-23T10:42:32.793Z,87.37
2019-02-23T10:45:02.188Z,86.83
2019-02-23T10:47:31.502Z,86.86
2019-02-23T10:50:00.849Z,87.54
2019-02-23T10:52:30.255Z,86.88
2019-02-23T10:54:59.534Z,87.09
2019-02-23T10:57:29.123Z,86.94
2019-02-23T10:59:58.430Z,87.25
2019-02-23T11:02:27.898Z,87.17
2019-02-23T11:04:57.198Z,87.53
2019-02-23T11:07:26.741Z,87.82
2019-02-23T11:09:56.047Z,87.65
2019-02-23T11:12:25.421Z,87.85
2019-02-23T11:14:54.715Z,87.50
2019-02-23T11:17:24.423Z,87.44
2019-02-23T11:19:53.710Z,87.99
2019-02-23T11:22:23.446Z,88.54
2019-02-23T11:24:52.761Z,88.74
2019-02-23T11:27:22.511Z,88.96
2019-02-23T11:29:51.980Z,89.01
2019-02-23T11:32:21.556Z,89.00
2019-02-23T11:34:50.865Z,89.06
2019-02-23T11:37:21.237Z,88.67
2019-02-23T11:39:50.579Z,87.86
2019-02-23T11:42:39.140Z,87.69
2019-02-23T11:45:20.114Z,87.67
2019-02-23T11:47:49.485Z,87.54
2019-02-23T11:50:19.100Z,86.92
2019-02-23T11:52:48.389Z,87.43
2019-02-23T11:55:17.962Z,87.44
2019-02-23T11:57:47.250Z,87.22
2019-02-23T12:00:17.119Z,87.19
2019-02-23T12:02:52.529Z,86.65
2019-02-23T12:05:17.614Z,87.17
2019-02-23T12:07:47.057Z,86.00
2019-02-23T12:10:16.355Z,86.83
2019-02-23T12:12:46.540Z,85.81
2019-02-23T12:15:15.854Z,85.54
2019-02-23T12:17:45.186Z,85.23
2019-02-23T12:20:14.506Z,86.10
2019-02-23T12:22:43.807Z,84.99
2019-02-23T12:25:16.061Z,85.62
2019-02-23T12:27:44.474Z,85.06
2019-02-23T12:30:13.802Z,85.06
2019-02-23T12:32:43.230Z,85.19
2019-02-23T12:35:12.536Z,85.59
2019-02-23T12:37:42.018Z,85.67
2019-02-23T12:40:11.700Z,84.92
2019-02-23T12:42:59.950Z,85.21
2019-02-23T12:50:25.066Z,85.90
2019-02-23T12:52:54.483Z,86.79
2019-02-23T12:55:23.822Z,86.15
2019-02-23T12:57:53.487Z,85.87
2019-02-23T13:00:22.805Z,86.67
2019-02-23T13:02:52.257Z,86.58
2019-02-23T13:05:21.742Z,87.11
2019-02-23T13:07:51.464Z,86.98
2019-02-23T13:10:20.790Z,87.12
2019-02-23T13:12:58.633Z,87.13
2019-02-23T13:15:49.046Z,87.08
2019-02-23T13:18:56.351Z,86.17
2019-02-23T13:21:51.165Z,86.05
2019-02-23T13:24:58.541Z,85.76
2019-02-23T13:28:05.932Z,86.76
2019-02-23T13:30:58.741Z,87.69
2019-02-23T13:34:11.872Z,87.66
2019-02-23T13:37:12.290Z,87.36
2019-02-23T13:40:12.139Z,88.04
2019-02-23T13:43:06.841Z,88.40
2019-02-23T13:45:58.230Z,87.99
2019-02-23T13:48:50.548Z,88.33
2019-02-23T13:55:28.576Z,87.75
2019-02-23T13:58:35.900Z,87.25
2019-02-23T14:01:36.480Z,88.16
2019-02-23T14:04:43.804Z,87.54
2019-02-23T14:07:51.242Z,87.59
2019-02-23T14:10:51.983Z,88.27
2019-02-23T14:13:59.292Z,87.98
2019-02-23T14:17:06.788Z,88.11
2019-02-23T14:20:14.099Z,88.71
2019-02-23T14:23:21.421Z,88.56
2019-02-23T14:26:28.893Z,88.11
2019-02-23T14:29:23.567Z,88.00
2019-02-23T14:32:31.074Z,88.38
2019-02-23T14:35:33.657Z,87.88
2019-02-23T14:38:41.000Z,87.87
2019-02-23T14:41:34.505Z,88.26
2019-02-23T14:44:41.844Z,88.56
2019-02-23T14:47:37.253Z,88.72
2019-02-23T14:50:44.595Z,89.06
2019-02-23T14:53:52.096Z,88.78
2019-02-23T14:56:59.748Z,88.73
2019-02-23T14:59:59.136Z,89.17
2019-02-23T15:03:06.526Z,89.02
2019-02-23T15:05:58.005Z,89.55
2019-02-23T15:09:05.472Z,89.87
2019-02-23T15:12:12.910Z,90.34
2019-02-23T15:15:20.221Z,90.46
2019-02-23T15:18:01.490Z,90.96
2019-02-23T15:21:08.848Z,91.12
2019-02-23T15:24:16.168Z,91.40
2019-02-23T15:27:23.731Z,91.26
2019-02-23T15:30:05.098Z,91.54
2019-02-23T15:33:12.438Z,91.79
2019-02-23T15:36:04.210Z,91.86
2019-02-23T15:39:12.934Z,91.93
2019-02-23T15:42:08.379Z,92.00
2019-02-23T15:45:08.417Z,92.40
2019-02-23T15:48:15.694Z,92.39
2019-02-23T15:50:45.076Z,92.66
2019-02-23T15:53:14.489Z,92.68
2019-02-23T15:55:43.799Z,92.94
2019-02-23T15:58:13.099Z,93.03
2019-02-23T16:01:02.868Z,93.20
2019-02-23T16:03:32.321Z,93.54
2019-02-23T16:06:01.776Z,93.48
2019-02-23T16:08:31.209Z,93.55
2019-02-23T16:11:00.538Z,93.79
2019-02-23T16:13:29.880Z,93.79
2019-02-23T16:15:59.212Z,93.74
2019-02-23T16:21:17.256Z,93.97
2019-02-23T16:23:46.631Z,94.06
2019-02-23T16:26:35.075Z,94.39
2019-02-23T16:31:53.510Z,94.58
2019-02-23T16:34:22.813Z,94.29
2019-02-23T16:36:52.314Z,94.49
2019-02-23T16:39:21.618Z,94.51
2019-02-23T16:41:51.181Z,94.51
2019-02-23T16:44:39.484Z,94.93
2019-02-23T16:49:57.145Z,94.90
2019-02-23T16:52:26.471Z,94.99
2019-02-23T16:54:55.759Z,94.89
2019-02-23T16:57:25.314Z,95.11
2019-02-23T16:59:54.672Z,95.29
2019-02-23T17:02:24.447Z,95.33
2019-02-23T17:04:54.205Z,95.83
2019-02-23T17:07:25.535Z,95.85
2019-02-23T17:09:54.863Z,95.58
2019-02-23T17:12:24.196Z,95.81
2019-02-23T17:14:53.551Z,95.69
2019-02-23T17:17:22.964Z,95.91
2019-02-23T17:19:52.258Z,96.12
2019-02-23T17:22:21.609Z,96.35
2019-02-23T17:24:50.916Z,96.45
2019-02-23T17:27:20.325Z,96.66
2019-02-23T17:29:49.627Z,96.30
2019-02-23T17:32:19.061Z,96.37
2019-02-23T17:34:48.351Z,96.62
2019-02-23T17:40:06.254Z,96.70
2019-02-23T17:42:54.462Z,96.95
2019-02-23T17:45:23.808Z,97.13
2019-02-23T17:47:53.319Z,97.20
2019-02-23T17:50:22.600Z,97.75
2019-02-23T17:52:52.066Z,98.09
2019-02-23T17:55:21.348Z,97.99
2019-02-23T17:57:50.763Z,98.38
2019-02-23T18:00:39.325Z,98.58
2019-02-23T18:03:08.689Z,99.06
2019-02-23T18:05:38.245Z,98.92
2019-02-23T18:08:07.592Z,99.34
2019-02-23T18:10:37.120Z,99.68
2019-02-23T18:13:06.419Z,99.75
2019-02-23T18:15:36.329Z,99.68
2019-02-23T18:18:05.647Z,100.00
2019-02-23T18:20:35.360Z,99.44
2019-02-23T18:23:04.698Z,99.78
2019-02-23T18:25:34.287Z,100.00
2019-02-23T18:28:03.616Z,100.00
2019-02-23T18:30:33.676Z,100.00
2019-02-23T18:33:03.031Z,100.00
2019-02-23T18:35:51.411Z,100.00
2019-02-23T18:38:20.765Z,100.00
2019-02-23T18:40:50.079Z,100.00
2019-02-23T18:43:19.605Z,100.00
2019-02-23T18:45:49.029Z,100.00
2019-02-23T18:48:18.940Z,100.00
2019-02-23T18:50:48.281Z,100.00
2019-02-23T18:55:53.100Z,100.00
2019-02-23T18:58:22.487Z,100.00
2019-02-23T19:00:52.032Z,100.00
2019-02-23T19:03:21.325Z,100.00
2019-02-23T19:05:50.899Z,100.00
2019-02-23T19:08:20.214Z,100.00
2019-02-23T19:10:49.616Z,100.00
2019-02-23T19:13:18.925Z,100.00
2019-02-23T19:15:48.300Z,100.00
2019-02-23T19:18:18.915Z,100.00
2019-02-23T19:20:48.704Z,100.00
2019-02-23T19:23:37.014Z,100.00
2019-02-23T19:26:06.327Z,100.00
2019-02-23T19:28:43.027Z,100.00
2019-02-23T19:31:06.867Z,100.00
2019-02-23T19:33:36.275Z,100.00
2019-02-23T19:36:05.730Z,100.00
2019-02-23T19:38:35.119Z,100.00
2019-02-23T19:41:04.506Z,100.00
2019-02-23T19:46:22.954Z,100.00
2019-02-23T19:48:52.363Z,100.00
2019-02-23T19:51:21.671Z,100.00
2019-02-23T19:53:51.241Z,100.00
2019-02-23T19:56:20.790Z,100.00
2019-02-23T19:58:50.203Z,100.00
2019-02-23T20:01:19.508Z,100.00
2019-02-23T20:03:48.948Z,100.00
2019-02-23T20:06:18.280Z,100.00
2019-02-23T20:08:47.784Z,100.00
2019-02-23T20:11:36.071Z,100.00
2019-02-23T20:14:05.404Z,100.00
2019-02-23T20:16:34.747Z,100.00
2019-02-23T20:19:04.384Z,100.00
2019-02-23T20:21:33.724Z,100.00
2019-02-23T20:24:03.457Z,100.00
2019-02-23T20:26:32.756Z,100.00
2019-02-23T20:29:02.197Z,100.00
2019-02-23T20:31:31.562Z,100.00
2019-02-23T20:34:01.066Z,100.00
2019-02-23T20:36:30.518Z,100.00
2019-02-23T20:38:59.908Z,100.00
2019-02-23T20:41:29.242Z,100.00
2019-02-23T20:43:58.768Z,100.00
2019-02-23T20:46:28.105Z,100.00
2019-02-23T20:48:57.840Z,100.00
2019-02-23T20:51:46.130Z,99.91
2019-02-23T20:54:15.421Z,99.25
2019-02-23T20:56:44.939Z,99.29
2019-02-23T20:59:14.254Z,99.27
2019-02-23T21:01:43.910Z,99.13
2019-02-23T21:04:13.192Z,98.82
2019-02-23T21:06:43.055Z,98.90
2019-02-23T21:09:12.440Z,98.62
2019-02-23T21:11:41.842Z,98.29
2019-02-23T21:14:11.222Z,98.58
2019-02-23T21:16:40.590Z,98.54
2019-02-23T21:19:09.912Z,98.27
2019-02-23T21:21:39.279Z,97.95
2019-02-23T21:24:08.688Z,97.92
2019-02-23T21:26:38.305Z,98.24
2019-02-23T21:29:07.668Z,97.88
2019-02-23T21:31:37.074Z,98.05
2019-02-23T21:34:06.450Z,97.87
2019-02-23T21:36:35.738Z,97.98
2019-02-23T21:39:06.617Z,98.07
2019-02-23T21:41:55.020Z,98.04
2019-02-23T21:44:24.359Z,97.96
2019-02-23T21:46:53.966Z,98.30
2019-02-23T21:49:23.318Z,98.68
2019-02-23T21:51:52.883Z,98.79
2019-02-23T21:54:22.321Z,98.74
2019-02-23T21:56:51.809Z,98.31
2019-02-23T21:59:21.224Z,98.76
2019-02-23T22:01:50.606Z,98.61
2019-02-23T22:04:19.904Z,99.12
2019-02-23T22:07:08.139Z,98.74
2019-02-23T22:09:37.446Z,99.17
2019-02-23T22:12:06.726Z,99.39
2019-02-23T22:14:36.135Z,99.08
2019-02-23T22:17:05.489Z,98.75
2019-02-23T22:19:34.847Z,98.70
2019-02-23T22:22:04.170Z,98.61
2019-02-23T22:24:33.471Z,98.61
2019-02-23T22:27:02.766Z,99.03
2019-02-23T22:29:32.027Z,98.72
2019-02-23T22:32:01.527Z,98.48
2019-02-23T22:34:30.819Z,98.44
2019-02-23T22:37:00.273Z,98.16
2019-02-23T22:39:29.542Z,98.08
2019-02-23T22:44:34.433Z,98.12
2019-02-23T22:47:03.745Z,98.31
2019-02-23T22:49:33.627Z,98.30
2019-02-23T22:52:02.909Z,98.18
2019-02-23T22:54:32.360Z,98.37
2019-02-23T22:57:01.710Z,98.38
2019-02-23T22:59:31.114Z,98.52
2019-02-23T23:02:00.455Z,98.35
2019-02-23T23:04:29.935Z,98.53
2019-02-23T23:06:59.221Z,98.22
2019-02-23T23:12:17.481Z,98.46
2019-02-23T23:14:46.753Z,98.52
2019-02-23T23:17:16.385Z,98.82
2019-02-23T23:19:45.695Z,98.25
2019-02-23T23:22:15.377Z,98.59
2019-02-23T23:25:03.845Z,98.36
2019-02-23T23:27:33.207Z,98.09
2019-02-23T23:30:02.894Z,98.14
2019-02-23T23:32:32.175Z,98.29
2019-02-23T23:35:01.620Z,98.23
2019-02-23T23:37:30.934Z,98.39
2019-02-23T23:40:00.393Z,98.46
2019-02-23T23:42:29.748Z,98.32
2019-02-23T23:44:59.447Z,98.33
2019-02-23T23:47:28.699Z,98.57
2019-02-23T23:49:58.277Z,98.56
2019-02-23T23:52:38.833Z,98.39
2019-02-23T23:55:19.757Z,98.74
2019-02-23T23:57:57.822Z,98.63
